sensor_id;sensor_type;location;lat;lon;timestamp;P1;durP1;ratioP1;P2;durP2;ratioP2
12165;SDS011;6146;48.128;11.476;2023-06-22T00:01:54;6.17;;;3.97;;
12165;SDS011;6146;48.128;11.476;2023-06-22T00:04:20;6.83;;;4.17;;
12165;SDS011;6146;48.128;11.476;2023-06-22T00:06:45;8.27;;;4.00;;
12165;SDS011;6146;48.128;11.476;2023-06-22T00:09:11;7.47;;;3.97;;
12165;SDS011;6146;48.128;11.476;2023-06-22T00:11:37;6.83;;;4.27;;
12165;SDS011;6146;48.128;11.476;2023-06-22T00:14:03;6.40;;;3.93;;
12165;SDS011;6146;48.128;11.476;2023-06-22T00:16:29;6.77;;;3.90;;
12165;SDS011;6146;48.128;11.476;2023-06-22T00:18:56;6.53;;;3.77;;
12165;SDS011;6146;48.128;11.476;2023-06-22T00:21:25;5.77;;;4.10;;
12165;SDS011;6146;48.128;11.476;2023-06-22T00:23:53;6.67;;;3.93;;
12165;SDS011;6146;48.128;11.476;2023-06-22T00:26:19;6.40;;;4.10;;
12165;SDS011;6146;48.128;11.476;2023-06-22T00:28:45;7.03;;;3.90;;
12165;SDS011;6146;48.128;11.476;2023-06-22T00:31:11;6.87;;;4.30;;
12165;SDS011;6146;48.128;11.476;2023-06-22T00:33:37;5.90;;;3.83;;
12165;SDS011;6146;48.128;11.476;2023-06-22T00:36:03;5.27;;;3.87;;
12165;SDS011;6146;48.128;11.476;2023-06-22T00:38:28;7.23;;;4.17;;
12165;SDS011;6146;48.128;11.476;2023-06-22T00:40:54;8.27;;;4.87;;
12165;SDS011;6146;48.128;11.476;2023-06-22T00:43:20;6.67;;;4.00;;
12165;SDS011;6146;48.128;11.476;2023-06-22T00:45:45;5.13;;;4.07;;
12165;SDS011;6146;48.128;11.476;2023-06-22T00:48:11;5.53;;;3.80;;
12165;SDS011;6146;48.128;11.476;2023-06-22T00:50:37;6.57;;;3.97;;
12165;SDS011;6146;48.128;11.476;2023-06-22T00:53:04;9.87;;;4.30;;
12165;SDS011;6146;48.128;11.476;2023-06-22T00:55:38;6.00;;;3.77;;
12165;SDS011;6146;48.128;11.476;2023-06-22T00:58:16;9.50;;;4.40;;
12165;SDS011;6146;48.128;11.476;2023-06-22T01:00:42;7.07;;;4.27;;
12165;SDS011;6146;48.128;11.476;2023-06-22T01:03:07;6.03;;;4.17;;
12165;SDS011;6146;48.128;11.476;2023-06-22T01:05:34;10.63;;;4.30;;
12165;SDS011;6146;48.128;11.476;2023-06-22T01:08:04;8.13;;;4.20;;
12165;SDS011;6146;48.128;11.476;2023-06-22T01:10:56;7.50;;;4.13;;
12165;SDS011;6146;48.128;11.476;2023-06-22T01:13:37;5.47;;;4.17;;
12165;SDS011;6146;48.128;11.476;2023-06-22T01:18:45;6.87;;;3.90;;
12165;SDS011;6146;48.128;11.476;2023-06-22T01:21:14;5.40;;;3.97;;
12165;SDS011;6146;48.128;11.476;2023-06-22T01:23:54;7.63;;;4.40;;
12165;SDS011;6146;48.128;11.476;2023-06-22T01:26:41;6.80;;;4.37;;
12165;SDS011;6146;48.128;11.476;2023-06-22T01:29:11;8.43;;;4.30;;
12165;SDS011;6146;48.128;11.476;2023-06-22T01:31:40;7.43;;;4.37;;
12165;SDS011;6146;48.128;11.476;2023-06-22T01:34:07;6.57;;;4.63;;
12165;SDS011;6146;48.128;11.476;2023-06-22T01:36:34;7.10;;;4.87;;
12165;SDS011;6146;48.128;11.476;2023-06-22T01:39:02;10.73;;;4.30;;
12165;SDS011;6146;48.128;11.476;2023-06-22T01:41:33;6.40;;;4.33;;
12165;SDS011;6146;48.128;11.476;2023-06-22T01:44:01;8.33;;;4.10;;
12165;SDS011;6146;48.128;11.476;2023-06-22T01:46:30;7.00;;;4.53;;
12165;SDS011;6146;48.128;11.476;2023-06-22T01:48:57;6.87;;;3.90;;
12165;SDS011;6146;48.128;11.476;2023-06-22T01:51:22;7.00;;;4.40;;
12165;SDS011;6146;48.128;11.476;2023-06-22T01:53:49;5.50;;;3.80;;
12165;SDS011;6146;48.128;11.476;2023-06-22T01:56:16;5.90;;;4.60;;
12165;SDS011;6146;48.128;11.476;2023-06-22T01:59:17;6.57;;;4.27;;
12165;SDS011;6146;48.128;11.476;2023-06-22T02:01:57;7.33;;;4.60;;
12165;SDS011;6146;48.128;11.476;2023-06-22T02:04:27;6.80;;;4.87;;
12165;SDS011;6146;48.128;11.476;2023-06-22T02:07:07;8.20;;;5.33;;
12165;SDS011;6146;48.128;11.476;2023-06-22T02:09:38;9.03;;;5.10;;
12165;SDS011;6146;48.128;11.476;2023-06-22T02:12:07;9.53;;;4.77;;
12165;SDS011;6146;48.128;11.476;2023-06-22T02:14:35;7.60;;;5.00;;
12165;SDS011;6146;48.128;11.476;2023-06-22T02:17:02;6.00;;;4.63;;
12165;SDS011;6146;48.128;11.476;2023-06-22T02:19:29;6.93;;;5.00;;
12165;SDS011;6146;48.128;11.476;2023-06-22T02:21:58;7.17;;;5.37;;
12165;SDS011;6146;48.128;11.476;2023-06-22T02:24:23;10.33;;;4.97;;
12165;SDS011;6146;48.128;11.476;2023-06-22T02:26:49;9.07;;;4.87;;
12165;SDS011;6146;48.128;11.476;2023-06-22T02:29:14;7.33;;;4.80;;
12165;SDS011;6146;48.128;11.476;2023-06-22T02:31:40;8.40;;;4.47;;
12165;SDS011;6146;48.128;11.476;2023-06-22T02:34:06;6.47;;;4.73;;
12165;SDS011;6146;48.128;11.476;2023-06-22T02:36:32;7.67;;;4.60;;
12165;SDS011;6146;48.128;11.476;2023-06-22T02:38:58;9.40;;;4.90;;
12165;SDS011;6146;48.128;11.476;2023-06-22T02:41:26;7.43;;;5.10;;
12165;SDS011;6146;48.128;11.476;2023-06-22T02:43:52;7.30;;;4.83;;
12165;SDS011;6146;48.128;11.476;2023-06-22T02:46:17;7.87;;;4.80;;
12165;SDS011;6146;48.128;11.476;2023-06-22T02:48:43;5.87;;;5.27;;
12165;SDS011;6146;48.128;11.476;2023-06-22T02:51:08;8.90;;;4.87;;
12165;SDS011;6146;48.128;11.476;2023-06-22T02:53:34;9.30;;;5.47;;
12165;SDS011;6146;48.128;11.476;2023-06-22T02:56:01;7.33;;;5.33;;
12165;SDS011;6146;48.128;11.476;2023-06-22T02:58:30;6.67;;;4.43;;
12165;SDS011;6146;48.128;11.476;2023-06-22T03:01:03;7.73;;;5.23;;
12165;SDS011;6146;48.128;11.476;2023-06-22T03:03:29;7.73;;;4.80;;
12165;SDS011;6146;48.128;11.476;2023-06-22T03:05:55;6.13;;;5.00;;
12165;SDS011;6146;48.128;11.476;2023-06-22T03:08:21;5.97;;;5.13;;
12165;SDS011;6146;48.128;11.476;2023-06-22T03:10:46;7.17;;;5.30;;
12165;SDS011;6146;48.128;11.476;2023-06-22T03:13:12;10.93;;;5.40;;
12165;SDS011;6146;48.128;11.476;2023-06-22T03:15:37;8.60;;;5.37;;
12165;SDS011;6146;48.128;11.476;2023-06-22T03:18:03;7.20;;;4.90;;
12165;SDS011;6146;48.128;11.476;2023-06-22T03:20:29;6.93;;;5.07;;
12165;SDS011;6146;48.128;11.476;2023-06-22T03:22:58;8.50;;;5.43;;
12165;SDS011;6146;48.128;11.476;2023-06-22T03:25:24;6.63;;;5.00;;
12165;SDS011;6146;48.128;11.476;2023-06-22T03:27:50;10.67;;;5.57;;
12165;SDS011;6146;48.128;11.476;2023-06-22T03:30:15;5.77;;;4.80;;
12165;SDS011;6146;48.128;11.476;2023-06-22T03:32:41;6.40;;;5.20;;
12165;SDS011;6146;48.128;11.476;2023-06-22T03:35:08;7.60;;;5.50;;
12165;SDS011;6146;48.128;11.476;2023-06-22T03:37:37;5.73;;;5.00;;
12165;SDS011;6146;48.128;11.476;2023-06-22T03:40:03;9.40;;;5.50;;
12165;SDS011;6146;48.128;11.476;2023-06-22T03:42:30;9.27;;;5.73;;
12165;SDS011;6146;48.128;11.476;2023-06-22T03:44:55;8.13;;;5.20;;
12165;SDS011;6146;48.128;11.476;2023-06-22T03:47:21;8.43;;;5.30;;
12165;SDS011;6146;48.128;11.476;2023-06-22T03:49:47;8.50;;;6.03;;
12165;SDS011;6146;48.128;11.476;2023-06-22T03:52:13;7.93;;;5.80;;
12165;SDS011;6146;48.128;11.476;2023-06-22T03:54:38;7.87;;;5.37;;
12165;SDS011;6146;48.128;11.476;2023-06-22T03:57:04;8.63;;;5.27;;
12165;SDS011;6146;48.128;11.476;2023-06-22T03:59:30;8.17;;;5.97;;
12165;SDS011;6146;48.128;11.476;2023-06-22T04:01:57;8.77;;;5.53;;
12165;SDS011;6146;48.128;11.476;2023-06-22T04:04:22;7.83;;;5.90;;
12165;SDS011;6146;48.128;11.476;2023-06-22T04:06:48;7.33;;;5.30;;
12165;SDS011;6146;48.128;11.476;2023-06-22T04:09:14;6.67;;;5.03;;
12165;SDS011;6146;48.128;11.476;2023-06-22T04:11:39;5.70;;;4.77;;
12165;SDS011;6146;48.128;11.476;2023-06-22T04:14:05;10.37;;;5.80;;
12165;SDS011;6146;48.128;11.476;2023-06-22T04:16:30;8.23;;;5.20;;
12165;SDS011;6146;48.128;11.476;2023-06-22T04:18:56;10.63;;;5.93;;
12165;SDS011;6146;48.128;11.476;2023-06-22T04:21:21;6.07;;;4.97;;
12165;SDS011;6146;48.128;11.476;2023-06-22T04:23:47;6.93;;;5.37;;
12165;SDS011;6146;48.128;11.476;2023-06-22T04:26:13;7.47;;;5.07;;
12165;SDS011;6146;48.128;11.476;2023-06-22T04:28:41;9.23;;;5.43;;
12165;SDS011;6146;48.128;11.476;2023-06-22T04:31:07;8.13;;;5.80;;
12165;SDS011;6146;48.128;11.476;2023-06-22T04:33:32;8.70;;;5.97;;
12165;SDS011;6146;48.128;11.476;2023-06-22T04:35:58;8.87;;;5.67;;
12165;SDS011;6146;48.128;11.476;2023-06-22T04:38:27;9.07;;;6.00;;
12165;SDS011;6146;48.128;11.476;2023-06-22T04:40:52;6.77;;;6.07;;
12165;SDS011;6146;48.128;11.476;2023-06-22T04:43:18;7.93;;;5.67;;
12165;SDS011;6146;48.128;11.476;2023-06-22T04:45:44;9.17;;;6.40;;
12165;SDS011;6146;48.128;11.476;2023-06-22T04:48:10;7.90;;;5.87;;
12165;SDS011;6146;48.128;11.476;2023-06-22T04:50:40;8.47;;;6.10;;
12165;SDS011;6146;48.128;11.476;2023-06-22T04:53:06;10.13;;;6.47;;
12165;SDS011;6146;48.128;11.476;2023-06-22T04:55:32;9.93;;;5.87;;
12165;SDS011;6146;48.128;11.476;2023-06-22T04:57:58;8.63;;;5.73;;
12165;SDS011;6146;48.128;11.476;2023-06-22T05:00:29;9.17;;;6.00;;
12165;SDS011;6146;48.128;11.476;2023-06-22T05:02:55;10.43;;;5.67;;
12165;SDS011;6146;48.128;11.476;2023-06-22T05:05:22;8.73;;;6.00;;
12165;SDS011;6146;48.128;11.476;2023-06-22T05:07:49;10.00;;;5.97;;
12165;SDS011;6146;48.128;11.476;2023-06-22T05:10:17;9.93;;;5.93;;
12165;SDS011;6146;48.128;11.476;2023-06-22T05:12:44;8.57;;;5.87;;
12165;SDS011;6146;48.128;11.476;2023-06-22T05:15:11;7.80;;;5.47;;
12165;SDS011;6146;48.128;11.476;2023-06-22T05:17:36;6.40;;;5.40;;
12165;SDS011;6146;48.128;11.476;2023-06-22T05:20:08;9.30;;;5.90;;
12165;SDS011;6146;48.128;11.476;2023-06-22T05:22:37;8.97;;;6.67;;
12165;SDS011;6146;48.128;11.476;2023-06-22T05:25:08;8.60;;;5.70;;
12165;SDS011;6146;48.128;11.476;2023-06-22T05:27:34;10.13;;;5.80;;
12165;SDS011;6146;48.128;11.476;2023-06-22T05:30:04;9.70;;;6.20;;
12165;SDS011;6146;48.128;11.476;2023-06-22T05:32:33;7.37;;;5.90;;
12165;SDS011;6146;48.128;11.476;2023-06-22T05:34:59;9.43;;;6.73;;
12165;SDS011;6146;48.128;11.476;2023-06-22T05:37:25;10.13;;;6.07;;
12165;SDS011;6146;48.128;11.476;2023-06-22T05:39:51;8.70;;;6.28;;
12165;SDS011;6146;48.128;11.476;2023-06-22T05:42:16;7.13;;;5.85;;
12165;SDS011;6146;48.128;11.476;2023-06-22T05:44:42;8.02;;;6.22;;
12165;SDS011;6146;48.128;11.476;2023-06-22T05:47:08;10.15;;;6.47;;
12165;SDS011;6146;48.128;11.476;2023-06-22T05:49:33;8.55;;;5.93;;
12165;SDS011;6146;48.128;11.476;2023-06-22T05:51:59;7.00;;;6.07;;
12165;SDS011;6146;48.128;11.476;2023-06-22T05:54:25;13.07;;;6.65;;
12165;SDS011;6146;48.128;11.476;2023-06-22T05:56:52;8.90;;;6.55;;
12165;SDS011;6146;48.128;11.476;2023-06-22T05:59:17;11.00;;;6.93;;
12165;SDS011;6146;48.128;11.476;2023-06-22T06:01:43;10.98;;;6.63;;
12165;SDS011;6146;48.128;11.476;2023-06-22T06:04:09;10.15;;;6.85;;
12165;SDS011;6146;48.128;11.476;2023-06-22T06:06:34;9.88;;;6.43;;
12165;SDS011;6146;48.128;11.476;2023-06-22T06:09:02;9.70;;;6.40;;
12165;SDS011;6146;48.128;11.476;2023-06-22T06:11:28;9.13;;;6.50;;
12165;SDS011;6146;48.128;11.476;2023-06-22T06:13:54;11.30;;;6.25;;
12165;SDS011;6146;48.128;11.476;2023-06-22T06:16:20;10.77;;;6.38;;
12165;SDS011;6146;48.128;11.476;2023-06-22T06:18:47;10.52;;;7.10;;
12165;SDS011;6146;48.128;11.476;2023-06-22T06:21:14;9.20;;;6.35;;
12165;SDS011;6146;48.128;11.476;2023-06-22T06:23:40;12.88;;;6.85;;
12165;SDS011;6146;48.128;11.476;2023-06-22T06:26:05;10.98;;;6.22;;
12165;SDS011;6146;48.128;11.476;2023-06-22T06:28:32;7.82;;;6.43;;
12165;SDS011;6146;48.128;11.476;2023-06-22T06:30:57;10.02;;;6.07;;
12165;SDS011;6146;48.128;11.476;2023-06-22T06:33:23;9.02;;;5.82;;
12165;SDS011;6146;48.128;11.476;2023-06-22T06:35:49;7.45;;;6.03;;
12165;SDS011;6146;48.128;11.476;2023-06-22T06:38:14;7.65;;;5.90;;
12165;SDS011;6146;48.128;11.476;2023-06-22T06:40:40;10.60;;;6.28;;
12165;SDS011;6146;48.128;11.476;2023-06-22T06:43:06;9.55;;;6.00;;
12165;SDS011;6146;48.128;11.476;2023-06-22T06:45:31;7.82;;;5.32;;
12165;SDS011;6146;48.128;11.476;2023-06-22T06:47:59;8.25;;;5.63;;
12165;SDS011;6146;48.128;11.476;2023-06-22T06:50:25;8.00;;;5.82;;
12165;SDS011;6146;48.128;11.476;2023-06-22T06:52:51;9.13;;;6.65;;
12165;SDS011;6146;48.128;11.476;2023-06-22T06:55:16;10.27;;;5.90;;
12165;SDS011;6146;48.128;11.476;2023-06-22T06:57:44;7.97;;;5.40;;
12165;SDS011;6146;48.128;11.476;2023-06-22T07:00:13;7.15;;;4.95;;
12165;SDS011;6146;48.128;11.476;2023-06-22T07:02:40;9.68;;;4.93;;
12165;SDS011;6146;48.128;11.476;2023-06-22T07:05:07;8.73;;;5.93;;
12165;SDS011;6146;48.128;11.476;2023-06-22T07:07:33;7.95;;;5.72;;
12165;SDS011;6146;48.128;11.476;2023-06-22T07:09:59;11.57;;;6.10;;
12165;SDS011;6146;48.128;11.476;2023-06-22T07:12:25;8.70;;;5.20;;
12165;SDS011;6146;48.128;11.476;2023-06-22T07:14:51;7.78;;;5.97;;
12165;SDS011;6146;48.128;11.476;2023-06-22T07:17:17;8.75;;;5.78;;
12165;SDS011;6146;48.128;11.476;2023-06-22T07:19:43;7.25;;;5.43;;
12165;SDS011;6146;48.128;11.476;2023-06-22T07:22:09;7.18;;;5.03;;
12165;SDS011;6146;48.128;11.476;2023-06-22T07:24:34;10.40;;;5.95;;
12165;SDS011;6146;48.128;11.476;2023-06-22T07:27:00;10.10;;;5.97;;
12165;SDS011;6146;48.128;11.476;2023-06-22T07:29:27;6.65;;;5.25;;
12165;SDS011;6146;48.128;11.476;2023-06-22T07:31:52;9.40;;;5.80;;
12165;SDS011;6146;48.128;11.476;2023-06-22T07:34:18;10.82;;;6.30;;
12165;SDS011;6146;48.128;11.476;2023-06-22T07:36:44;8.55;;;5.60;;
12165;SDS011;6146;48.128;11.476;2023-06-22T07:39:10;9.23;;;5.80;;
12165;SDS011;6146;48.128;11.476;2023-06-22T07:41:36;6.82;;;4.93;;
12165;SDS011;6146;48.128;11.476;2023-06-22T07:44:03;8.88;;;5.10;;
12165;SDS011;6146;48.128;11.476;2023-06-22T07:46:30;7.43;;;5.05;;
12165;SDS011;6146;48.128;11.476;2023-06-22T07:48:56;8.13;;;4.97;;
12165;SDS011;6146;48.128;11.476;2023-06-22T07:51:22;11.02;;;6.10;;
12165;SDS011;6146;48.128;11.476;2023-06-22T07:53:48;7.18;;;4.85;;
12165;SDS011;6146;48.128;11.476;2023-06-22T07:56:14;7.47;;;5.32;;
12165;SDS011;6146;48.128;11.476;2023-06-22T07:58:43;9.27;;;5.82;;
12165;SDS011;6146;48.128;11.476;2023-06-22T08:01:10;13.60;;;6.05;;
12165;SDS011;6146;48.128;11.476;2023-06-22T08:03:36;9.63;;;6.00;;
12165;SDS011;6146;48.128;11.476;2023-06-22T08:06:02;7.53;;;5.15;;
12165;SDS011;6146;48.128;11.476;2023-06-22T08:08:27;10.65;;;5.85;;
12165;SDS011;6146;48.128;11.476;2023-06-22T08:10:53;9.82;;;5.32;;
12165;SDS011;6146;48.128;11.476;2023-06-22T08:13:18;6.43;;;5.50;;
12165;SDS011;6146;48.128;11.476;2023-06-22T08:15:44;7.38;;;5.30;;
12165;SDS011;6146;48.128;11.476;2023-06-22T08:18:10;7.05;;;5.47;;
12165;SDS011;6146;48.128;11.476;2023-06-22T08:20:35;9.45;;;5.63;;
12165;SDS011;6146;48.128;11.476;2023-06-22T08:23:01;8.55;;;5.13;;
12165;SDS011;6146;48.128;11.476;2023-06-22T08:25:31;9.07;;;5.40;;
12165;SDS011;6146;48.128;11.476;2023-06-22T08:27:57;8.00;;;5.60;;
12165;SDS011;6146;48.128;11.476;2023-06-22T08:30:23;7.97;;;5.28;;
12165;SDS011;6146;48.128;11.476;2023-06-22T08:32:49;8.77;;;5.45;;
12165;SDS011;6146;48.128;11.476;2023-06-22T08:35:14;12.25;;;5.97;;
12165;SDS011;6146;48.128;11.476;2023-06-22T08:37:40;9.98;;;5.65;;
12165;SDS011;6146;48.128;11.476;2023-06-22T08:40:06;9.93;;;5.78;;
12165;SDS011;6146;48.128;11.476;2023-06-22T08:42:34;7.75;;;5.72;;
12165;SDS011;6146;48.128;11.476;2023-06-22T08:45:00;10.48;;;6.13;;
12165;SDS011;6146;48.128;11.476;2023-06-22T08:47:29;9.50;;;6.25;;
12165;SDS011;6146;48.128;11.476;2023-06-22T08:49:54;13.18;;;6.25;;
12165;SDS011;6146;48.128;11.476;2023-06-22T08:52:20;9.50;;;5.80;;
12165;SDS011;6146;48.128;11.476;2023-06-22T08:54:46;8.10;;;5.53;;
12165;SDS011;6146;48.128;11.476;2023-06-22T08:57:12;8.95;;;5.63;;
12165;SDS011;6146;48.128;11.476;2023-06-22T08:59:37;13.90;;;6.38;;
12165;SDS011;6146;48.128;11.476;2023-06-22T09:02:03;10.50;;;5.95;;
12165;SDS011;6146;48.128;11.476;2023-06-22T09:04:29;8.65;;;6.10;;
12165;SDS011;6146;48.128;11.476;2023-06-22T09:06:54;12.77;;;5.97;;
12165;SDS011;6146;48.128;11.476;2023-06-22T09:09:21;7.68;;;5.30;;
12165;SDS011;6146;48.128;11.476;2023-06-22T09:11:47;11.52;;;6.22;;
12165;SDS011;6146;48.128;11.476;2023-06-22T09:14:12;12.93;;;5.40;;
12165;SDS011;6146;48.128;11.476;2023-06-22T09:16:38;9.02;;;5.28;;
12165;SDS011;6146;48.128;11.476;2023-06-22T09:19:04;8.88;;;5.70;;
12165;SDS011;6146;48.128;11.476;2023-06-22T09:21:29;11.27;;;5.70;;
12165;SDS011;6146;48.128;11.476;2023-06-22T09:23:55;7.88;;;5.18;;
12165;SDS011;6146;48.128;11.476;2023-06-22T09:26:21;9.20;;;5.45;;
12165;SDS011;6146;48.128;11.476;2023-06-22T09:28:48;10.77;;;5.88;;
12165;SDS011;6146;48.128;11.476;2023-06-22T09:31:14;10.95;;;5.90;;
12165;SDS011;6146;48.128;11.476;2023-06-22T09:33:41;9.25;;;5.00;;
12165;SDS011;6146;48.128;11.476;2023-06-22T09:36:07;8.85;;;5.25;;
12165;SDS011;6146;48.128;11.476;2023-06-22T09:38:36;9.88;;;5.35;;
12165;SDS011;6146;48.128;11.476;2023-06-22T09:41:05;8.40;;;5.00;;
12165;SDS011;6146;48.128;11.476;2023-06-22T09:43:31;12.65;;;5.55;;
12165;SDS011;6146;48.128;11.476;2023-06-22T09:45:59;8.32;;;5.32;;
12165;SDS011;6146;48.128;11.476;2023-06-22T09:48:26;10.65;;;5.57;;
12165;SDS011;6146;48.128;11.476;2023-06-22T09:50:52;14.30;;;5.68;;
12165;SDS011;6146;48.128;11.476;2023-06-22T09:53:17;9.35;;;5.18;;
12165;SDS011;6146;48.128;11.476;2023-06-22T09:55:43;8.13;;;4.97;;
12165;SDS011;6146;48.128;11.476;2023-06-22T09:58:08;10.68;;;6.00;;
12165;SDS011;6146;48.128;11.476;2023-06-22T10:00:35;9.20;;;5.60;;
12165;SDS011;6146;48.128;11.476;2023-06-22T10:03:00;7.20;;;4.88;;
12165;SDS011;6146;48.128;11.476;2023-06-22T10:05:26;9.57;;;5.32;;
12165;SDS011;6146;48.128;11.476;2023-06-22T10:07:51;9.18;;;5.32;;
12165;SDS011;6146;48.128;11.476;2023-06-22T10:10:17;9.93;;;5.22;;
12165;SDS011;6146;48.128;11.476;2023-06-22T10:12:45;9.13;;;5.63;;
12165;SDS011;6146;48.128;11.476;2023-06-22T10:15:12;10.32;;;5.18;;
12165;SDS011;6146;48.128;11.476;2023-06-22T10:17:38;7.68;;;4.95;;
12165;SDS011;6146;48.128;11.476;2023-06-22T10:20:05;8.45;;;4.97;;
12165;SDS011;6146;48.128;11.476;2023-06-22T10:22:46;8.05;;;5.35;;
12165;SDS011;6146;48.128;11.476;2023-06-22T10:25:12;12.23;;;5.40;;
12165;SDS011;6146;48.128;11.476;2023-06-22T10:27:38;8.75;;;4.78;;
12165;SDS011;6146;48.128;11.476;2023-06-22T10:30:10;10.82;;;5.28;;
12165;SDS011;6146;48.128;11.476;2023-06-22T10:32:39;10.85;;;4.50;;
12165;SDS011;6146;48.128;11.476;2023-06-22T10:35:06;9.75;;;5.43;;
12165;SDS011;6146;48.128;11.476;2023-06-22T10:37:32;9.55;;;5.63;;
12165;SDS011;6146;48.128;11.476;2023-06-22T10:39:57;7.18;;;4.90;;
12165;SDS011;6146;48.128;11.476;2023-06-22T10:42:23;7.00;;;4.82;;
12165;SDS011;6146;48.128;11.476;2023-06-22T10:44:49;11.20;;;5.18;;
12165;SDS011;6146;48.128;11.476;2023-06-22T10:47:14;10.85;;;4.90;;
12165;SDS011;6146;48.128;11.476;2023-06-22T10:49:40;9.75;;;5.93;;
12165;SDS011;6146;48.128;11.476;2023-06-22T10:52:06;10.15;;;5.50;;
12165;SDS011;6146;48.128;11.476;2023-06-22T10:54:33;10.00;;;5.40;;
12165;SDS011;6146;48.128;11.476;2023-06-22T10:57:00;10.63;;;5.47;;
12165;SDS011;6146;48.128;11.476;2023-06-22T10:59:25;10.18;;;5.78;;
12165;SDS011;6146;48.128;11.476;2023-06-22T11:01:52;13.20;;;5.93;;
12165;SDS011;6146;48.128;11.476;2023-06-22T11:04:18;11.15;;;5.93;;
12165;SDS011;6146;48.128;11.476;2023-06-22T11:06:43;10.68;;;5.70;;
12165;SDS011;6146;48.128;11.476;2023-06-22T11:09:09;12.38;;;5.63;;
12165;SDS011;6146;48.128;11.476;2023-06-22T11:11:34;14.38;;;5.63;;
12165;SDS011;6146;48.128;11.476;2023-06-22T11:14:00;11.32;;;5.65;;
12165;SDS011;6146;48.128;11.476;2023-06-22T11:16:26;11.63;;;5.82;;
12165;SDS011;6146;48.128;11.476;2023-06-22T11:18:52;10.48;;;5.30;;
12165;SDS011;6146;48.128;11.476;2023-06-22T11:21:17;10.48;;;5.80;;
12165;SDS011;6146;48.128;11.476;2023-06-22T11:23:43;8.25;;;5.30;;
12165;SDS011;6146;48.128;11.476;2023-06-22T11:26:08;9.85;;;4.90;;
12165;SDS011;6146;48.128;11.476;2023-06-22T11:28:34;8.48;;;4.78;;
12165;SDS011;6146;48.128;11.476;2023-06-22T11:30:59;9.00;;;5.15;;
12165;SDS011;6146;48.128;11.476;2023-06-22T11:33:25;8.95;;;5.22;;
12165;SDS011;6146;48.128;11.476;2023-06-22T11:35:50;10.38;;;5.82;;
12165;SDS011;6146;48.128;11.476;2023-06-22T11:38:16;9.32;;;5.15;;
12165;SDS011;6146;48.128;11.476;2023-06-22T11:40:42;7.68;;;5.03;;
12165;SDS011;6146;48.128;11.476;2023-06-22T11:43:07;10.30;;;5.18;;
12165;SDS011;6146;48.128;11.476;2023-06-22T11:45:33;8.73;;;5.43;;
12165;SDS011;6146;48.128;11.476;2023-06-22T11:47:58;9.52;;;5.47;;
12165;SDS011;6146;48.128;11.476;2023-06-22T11:50:24;10.70;;;5.68;;
12165;SDS011;6146;48.128;11.476;2023-06-22T11:52:49;9.00;;;5.38;;
12165;SDS011;6146;48.128;11.476;2023-06-22T11:55:15;10.45;;;5.80;;
12165;SDS011;6146;48.128;11.476;2023-06-22T11:57:52;9.80;;;5.07;;
12165;SDS011;6146;48.128;11.476;2023-06-22T12:00:20;11.75;;;5.57;;
12165;SDS011;6146;48.128;11.476;2023-06-22T12:02:48;10.02;;;5.25;;
12165;SDS011;6146;48.128;11.476;2023-06-22T12:05:14;10.38;;;5.68;;
12165;SDS011;6146;48.128;11.476;2023-06-22T12:07:40;11.50;;;4.85;;
12165;SDS011;6146;48.128;11.476;2023-06-22T12:10:05;8.95;;;5.50;;
12165;SDS011;6146;48.128;11.476;2023-06-22T12:12:32;11.32;;;5.95;;
12165;SDS011;6146;48.128;11.476;2023-06-22T12:14:57;11.73;;;5.32;;
12165;SDS011;6146;48.128;11.476;2023-06-22T12:17:23;10.90;;;5.57;;
12165;SDS011;6146;48.128;11.476;2023-06-22T12:19:48;10.00;;;5.88;;
12165;SDS011;6146;48.128;11.476;2023-06-22T12:22:14;8.73;;;5.75;;
12165;SDS011;6146;48.128;11.476;2023-06-22T12:24:40;12.30;;;6.07;;
12165;SDS011;6146;48.128;11.476;2023-06-22T12:27:06;10.88;;;5.75;;
12165;SDS011;6146;48.128;11.476;2023-06-22T12:29:31;10.90;;;5.80;;
12165;SDS011;6146;48.128;11.476;2023-06-22T12:31:57;14.65;;;6.07;;
12165;SDS011;6146;48.128;11.476;2023-06-22T12:34:22;11.27;;;5.75;;
12165;SDS011;6146;48.128;11.476;2023-06-22T12:36:48;10.95;;;6.05;;
12165;SDS011;6146;48.128;11.476;2023-06-22T12:39:14;8.55;;;5.63;;
12165;SDS011;6146;48.128;11.476;2023-06-22T12:41:40;10.85;;;5.70;;
12165;SDS011;6146;48.128;11.476;2023-06-22T12:44:05;9.95;;;5.80;;
12165;SDS011;6146;48.128;11.476;2023-06-22T12:46:31;11.98;;;6.00;;
12165;SDS011;6146;48.128;11.476;2023-06-22T12:49:02;8.00;;;5.15;;
12165;SDS011;6146;48.128;11.476;2023-06-22T12:51:29;8.73;;;5.68;;
12165;SDS011;6146;48.128;11.476;2023-06-22T12:53:55;9.95;;;5.65;;
12165;SDS011;6146;48.128;11.476;2023-06-22T12:56:20;6.60;;;5.25;;
12165;SDS011;6146;48.128;11.476;2023-06-22T12:58:46;9.63;;;5.90;;
12165;SDS011;6146;48.128;11.476;2023-06-22T13:01:11;9.73;;;5.63;;
12165;SDS011;6146;48.128;11.476;2023-06-22T13:03:37;9.18;;;5.35;;
12165;SDS011;6146;48.128;11.476;2023-06-22T13:06:02;10.52;;;5.80;;
12165;SDS011;6146;48.128;11.476;2023-06-22T13:08:28;8.82;;;5.28;;
12165;SDS011;6146;48.128;11.476;2023-06-22T13:10:54;8.52;;;5.43;;
12165;SDS011;6146;48.128;11.476;2023-06-22T13:13:23;10.50;;;6.00;;
12165;SDS011;6146;48.128;11.476;2023-06-22T13:15:49;11.75;;;5.95;;
12165;SDS011;6146;48.128;11.476;2023-06-22T13:18:15;10.63;;;5.63;;
12165;SDS011;6146;48.128;11.476;2023-06-22T13:20:41;13.15;;;5.97;;
12165;SDS011;6146;48.128;11.476;2023-06-22T13:23:06;8.95;;;5.45;;
12165;SDS011;6146;48.128;11.476;2023-06-22T13:25:32;9.68;;;5.22;;
12165;SDS011;6146;48.128;11.476;2023-06-22T13:27:57;8.30;;;5.15;;
12165;SDS011;6146;48.128;11.476;2023-06-22T13:30:23;10.45;;;5.43;;
12165;SDS011;6146;48.128;11.476;2023-06-22T13:32:48;10.95;;;5.13;;
12165;SDS011;6146;48.128;11.476;2023-06-22T13:35:14;11.45;;;5.10;;
12165;SDS011;6146;48.128;11.476;2023-06-22T13:37:40;12.13;;;5.25;;
12165;SDS011;6146;48.128;11.476;2023-06-22T13:40:06;6.85;;;5.28;;
12165;SDS011;6146;48.128;11.476;2023-06-22T13:42:32;7.00;;;5.25;;
12165;SDS011;6146;48.128;11.476;2023-06-22T13:44:58;12.05;;;6.00;;
12165;SDS011;6146;48.128;11.476;2023-06-22T13:47:24;9.07;;;5.43;;
12165;SDS011;6146;48.128;11.476;2023-06-22T13:49:49;10.50;;;5.55;;
12165;SDS011;6146;48.128;11.476;2023-06-22T13:52:15;12.38;;;5.60;;
12165;SDS011;6146;48.128;11.476;2023-06-22T13:54:40;11.35;;;5.45;;
12165;SDS011;6146;48.128;11.476;2023-06-22T13:57:06;8.93;;;5.13;;
12165;SDS011;6146;48.128;11.476;2023-06-22T13:59:32;8.52;;;5.07;;
12165;SDS011;6146;48.128;11.476;2023-06-22T14:01:57;10.02;;;5.30;;
12165;SDS011;6146;48.128;11.476;2023-06-22T14:04:23;10.10;;;5.70;;
12165;SDS011;6146;48.128;11.476;2023-06-22T14:06:48;10.40;;;5.22;;
12165;SDS011;6146;48.128;11.476;2023-06-22T14:09:14;10.68;;;5.20;;
12165;SDS011;6146;48.128;11.476;2023-06-22T14:11:40;12.13;;;5.25;;
12165;SDS011;6146;48.128;11.476;2023-06-22T14:14:05;11.32;;;5.75;;
12165;SDS011;6146;48.128;11.476;2023-06-22T14:16:31;15.25;;;5.75;;
12165;SDS011;6146;48.128;11.476;2023-06-22T14:18:56;13.10;;;5.95;;
12165;SDS011;6146;48.128;11.476;2023-06-22T14:21:22;10.00;;;5.60;;
12165;SDS011;6146;48.128;11.476;2023-06-22T14:23:48;10.68;;;5.72;;
12165;SDS011;6146;48.128;11.476;2023-06-22T14:26:17;11.30;;;5.80;;
12165;SDS011;6146;48.128;11.476;2023-06-22T14:28:43;11.07;;;5.40;;
12165;SDS011;6146;48.128;11.476;2023-06-22T14:31:16;11.98;;;5.63;;
12165;SDS011;6146;48.128;11.476;2023-06-22T14:33:44;9.63;;;5.20;;
12165;SDS011;6146;48.128;11.476;2023-06-22T14:36:12;10.13;;;5.10;;
12165;SDS011;6146;48.128;11.476;2023-06-22T14:38:37;11.63;;;5.55;;
12165;SDS011;6146;48.128;11.476;2023-06-22T14:41:03;12.65;;;5.65;;
12165;SDS011;6146;48.128;11.476;2023-06-22T14:43:28;10.02;;;5.03;;